Time;durP1;ratioP1;P1;durP2;ratioP2;P2;SDS_P1;SDS_P2;PMS_P1;PMS_P2;Temp;Humidity;BMP_temperature;BMP_pressure;BME280_temperature;BME280_humidity;BME280_pressure;Samples;Min_cycle;Max_cycle;Signal;HPM_P1;HPM_P2
2022/06/30 00:00:48;;;;;;;14.10;9.23;;;;;;;19.00;100.00;98108.94;2627186;28;20044;-86
2022/06/30 00:02:04;;;;;;;13.88;9.68;;;;;;;19.00;100.00;98106.28;2626689;28;20048;-86
2022/06/30 00:03:19;;;;;;;12.80;8.45;;;;;;;19.01;100.00;98105.31;2627548;28;20047;-86
2022/06/30 00:04:35;;;;;;;14.00;9.40;;;;;;;18.98;100.00;98105.50;2627748;28;20422;-85
2022/06/30 00:05:50;;;;;;;15.05;9.23;;;;;;;18.92;100.00;98104.94;2627415;28;20040;-85
2022/06/30 00:07:06;;;;;;;16.33;8.63;;;;;;;18.91;100.00;98099.78;2627275;28;20131;-86
2022/06/30 00:08:22;;;;;;;12.98;8.38;;;;;;;18.91;100.00;98102.44;2627314;28;20048;-86
2022/06/30 00:09:37;;;;;;;13.43;8.80;;;;;;;18.90;100.00;98090.94;2627265;28;20048;-85
2022/06/30 00:10:52;;;;;;;13.45;9.50;;;;;;;18.89;100.00;98093.72;2627204;28;20052;-86
2022/06/30 00:12:09;;;;;;;13.32;8.48;;;;;;;18.84;100.00;98098.47;2627330;28;20090;-85
2022/06/30 00:13:24;;;;;;;13.85;8.50;;;;;;;18.84;100.00;98095.81;2627033;28;20808;-89
2022/06/30 00:14:40;;;;;;;12.85;9.05;;;;;;;18.81;100.00;98096.91;2627142;28;20066;-86
2022/06/30 00:15:55;;;;;;;13.27;8.30;;;;;;;18.81;100.00;98096.03;2627226;28;20044;-87
2022/06/30 00:17:11;;;;;;;12.50;8.88;;;;;;;18.82;100.00;98103.91;2627218;28;20097;-86
2022/06/30 00:18:27;;;;;;;13.82;8.80;;;;;;;18.81;100.00;98101.34;2627019;28;20452;-86
2022/06/30 00:19:45;;;;;;;14.30;8.27;;;;;;;18.80;100.00;98099.66;2626935;28;20089;-85
2022/06/30 00:21:01;;;;;;;10.18;7.75;;;;;;;18.81;100.00;98096.91;2627227;28;20075;-86
2022/06/30 00:22:17;;;;;;;11.70;7.32;;;;;;;18.83;100.00;98095.00;2627111;28;20489;-89
2022/06/30 00:23:32;;;;;;;12.02;7.30;;;;;;;18.84;100.00;98101.13;2627286;28;20048;-86
2022/06/30 00:24:48;;;;;;;10.88;7.47;;;;;;;18.88;100.00;98097.34;2626983;28;20091;-86
2022/06/30 00:26:03;;;;;;;10.90;7.35;;;;;;;18.87;100.00;98104.44;2626957;28;20055;-86
2022/06/30 00:27:19;;;;;;;10.05;7.53;;;;;;;18.84;100.00;98095.81;2626867;28;20044;-86
2022/06/30 00:28:35;;;;;;;14.90;7.85;;;;;;;18.82;100.00;98100.38;2626882;28;20044;-86
2022/06/30 00:29:50;;;;;;;11.55;7.50;;;;;;;18.80;100.00;98102.28;2627294;28;20055;-87
2022/06/30 00:31:06;;;;;;;10.88;7.35;;;;;;;18.79;100.00;98098.81;2626904;28;20083;-87
2022/06/30 00:32:22;;;;;;;14.30;7.50;;;;;;;18.76;100.00;98099.84;2627385;28;20050;-86
2022/06/30 00:33:37;;;;;;;11.07;7.07;;;;;;;18.71;100.00;98093.16;2626966;28;20055;-90
2022/06/30 00:34:53;;;;;;;9.93;7.47;;;;;;;18.66;100.00;98093.47;2627228;28;20139;-88
2022/06/30 00:36:08;;;;;;;8.15;6.97;;;;;;;18.64;100.00;98090.91;2627196;28;20146;-86
2022/06/30 00:37:24;;;;;;;10.68;7.18;;;;;;;18.70;100.00;98097.59;2626544;28;20156;-88
2022/06/30 00:38:40;;;;;;;9.30;6.82;;;;;;;18.71;100.00;98096.66;2627073;28;20056;-86
2022/06/30 00:39:55;;;;;;;12.60;7.05;;;;;;;18.67;100.00;98094.34;2615982;28;20048;-86
2022/06/30 00:41:11;;;;;;;10.40;7.13;;;;;;;18.70;100.00;98094.94;2620205;28;20051;-86
2022/06/30 00:42:29;;;;;;;9.77;6.82;;;;;;;18.66;100.00;98090.81;2627211;28;20117;-86
2022/06/30 00:43:45;;;;;;;11.90;6.90;;;;;;;18.62;100.00;98094.63;2627019;28;20130;-86
2022/06/30 00:45:01;;;;;;;11.02;7.32;;;;;;;18.61;100.00;98095.59;2627164;28;20047;-86
2022/06/30 00:46:17;;;;;;;11.70;7.80;;;;;;;18.60;100.00;98105.31;2627113;28;20783;-86
2022/06/30 00:47:32;;;;;;;9.13;6.72;;;;;;;18.60;100.00;98107.97;2626831;28;20056;-86
2022/06/30 00:48:49;;;;;;;10.88;7.18;;;;;;;18.60;100.00;98107.16;2626935;28;20425;-87
2022/06/30 00:50:05;;;;;;;12.18;7.88;;;;;;;18.60;100.00;98107.16;2626927;28;20526;-86
2022/06/30 00:51:21;;;;;;;9.07;7.10;;;;;;;18.59;100.00;98106.28;2627183;28;20486;-86
2022/06/30 00:52:37;;;;;;;9.90;7.28;;;;;;;18.61;100.00;98108.84;2627073;28;20052;-87
2022/06/30 00:53:55;;;;;;;8.88;6.95;;;;;;;18.60;100.00;98105.31;2626778;28;20048;-88
2022/06/30 00:55:10;;;;;;;12.00;7.03;;;;;;;18.59;100.00;98100.97;2626813;28;20055;-87
2022/06/30 00:56:29;;;;;;;14.77;7.90;;;;;;;18.58;100.00;98099.28;2626940;28;20058;-87
2022/06/30 00:57:46;;;;;;;8.82;7.25;;;;;;;18.58;100.00;98096.63;2626785;28;20048;-87
2022/06/30 00:59:03;;;;;;;9.77;6.80;;;;;;;18.61;100.00;98090.28;2626827;28;20109;-87
2022/06/30 01:00:19;;;;;;;8.55;6.72;;;;;;;18.60;100.00;98091.25;2627298;28;20063;-87
2022/06/30 01:01:36;;;;;;;9.50;6.28;;;;;;;18.54;100.00;98088.97;2626612;28;20044;-88
2022/06/30 01:02:53;;;;;;;11.50;6.70;;;;;;;18.54;100.00;98088.97;2626839;28;20047;-89
2022/06/30 01:04:09;;;;;;;8.68;6.43;;;;;;;18.52;100.00;98088.22;2626856;28;20449;-86
2022/06/30 01:05:25;;;;;;;10.40;7.00;;;;;;;18.53;100.00;98084.63;2627106;28;20044;-86
2022/06/30 01:06:44;;;;;;;11.43;6.72;;;;;;;18.53;100.00;98088.16;2626785;28;20063;-87
2022/06/30 01:08:01;;;;;;;10.25;6.50;;;;;;;18.53;100.00;98081.97;2626875;28;20056;-87
2022/06/30 01:12:41;;;;;;;9.18;6.72;;;;;;;18.54;100.00;98088.97;2626927;28;20483;-87
2022/06/30 01:12:41;;;;;;;10.35;7.20;;;;;;;18.53;100.00;98085.50;2627063;28;20044;-87
2022/06/30 01:13:59;;;;;;;11.02;7.25;;;;;;;18.53;100.00;98080.19;2626780;28;20560;-88
2022/06/30 01:15:17;;;;;;;11.48;7.47;;;;;;;18.45;100.00;98080.69;2626836;28;20044;-88
2022/06/30 01:16:33;;;;;;;9.98;7.45;;;;;;;18.40;100.00;98084.59;2626593;28;20052;-87
2022/06/30 01:17:50;;;;;;;11.07;7.25;;;;;;;18.39;100.00;98077.63;2626720;28;20079;-88
2022/06/30 01:19:07;;;;;;;13.05;7.65;;;;;;;18.34;100.00;98077.91;2626822;28;20055;-87
2022/06/30 01:20:31;;;;;;;10.30;7.07;;;;;;;18.34;100.00;98078.75;2626774;28;20051;-88
2022/06/30 01:22:03;;;;;;;12.40;8.00;;;;;;;18.34;100.00;98073.44;2626699;28;20130;-87
2022/06/30 01:23:18;;;;;;;8.98;7.20;;;;;;;18.35;100.00;98076.94;2626620;28;20052;-87
2022/06/30 01:24:34;;;;;;;10.82;7.55;;;;;;;18.35;100.00;98076.94;2626510;28;20130;-88
2022/06/30 01:25:51;;;;;;;11.85;7.78;;;;;;;18.32;100.00;98078.00;2626413;28;20075;-90
2022/06/30 01:27:07;;;;;;;11.07;7.72;;;;;;;18.32;100.00;98077.16;2626694;28;20044;-88
2022/06/30 01:28:22;;;;;;;12.52;7.53;;;;;;;18.31;100.00;98075.47;2626617;28;20044;-87
2022/06/30 01:29:38;;;;;;;10.80;7.20;;;;;;;18.32;100.00;98077.16;2626518;28;20047;-88
2022/06/30 01:30:54;;;;;;;9.52;7.25;;;;;;;18.34;100.00;98081.41;2626531;28;20136;-91
2022/06/30 01:32:10;;;;;;;9.07;7.15;;;;;;;18.36;100.00;98076.00;2626429;28;20048;-88
2022/06/30 01:33:26;;;;;;;12.07;7.18;;;;;;;18.38;100.00;98082.03;2626384;28;20050;-90
2022/06/30 01:34:42;;;;;;;11.65;7.55;;;;;;;18.39;100.00;98085.56;2626794;28;20460;-87
2022/06/30 01:35:58;;;;;;;10.85;7.20;;;;;;;18.39;100.00;98081.09;2626694;28;20044;-88
2022/06/30 01:37:13;;;;;;;12.07;7.25;;;;;;;18.40;100.00;98089.91;2626799;28;20550;-87
2022/06/30 01:38:29;;;;;;;10.07;7.20;;;;;;;18.40;100.00;98088.09;2626435;28;20044;-87
2022/06/30 01:39:45;;;;;;;11.57;7.32;;;;;;;18.38;100.00;98091.81;2626836;28;20047;-88
2022/06/30 01:41:00;;;;;;;11.55;7.28;;;;;;;18.32;100.00;98088.59;2626860;28;20048;-88
2022/06/30 01:42:16;;;;;;;13.18;7.32;;;;;;;18.30;100.00;98093.16;2626575;28;20071;-88
2022/06/30 01:43:31;;;;;;;10.93;7.45;;;;;;;18.28;100.00;98089.75;2626641;28;20062;-87
2022/06/30 01:44:47;;;;;;;13.20;7.65;;;;;;;18.31;100.00;98094.03;2626848;28;20052;-85
2022/06/30 01:46:03;;;;;;;12.70;7.65;;;;;;;18.30;100.00;98092.28;2626689;28;20674;-87
2022/06/30 01:47:18;;;;;;;12.45;7.60;;;;;;;18.32;100.00;98093.06;2626466;28;20139;-87
2022/06/30 01:48:34;;;;;;;11.13;7.80;;;;;;;18.35;100.00;98092.84;2626420;28;20048;-88
2022/06/30 01:49:50;;;;;;;10.15;7.13;;;;;;;18.35;100.00;98090.22;2626385;28;20052;-88
2022/06/30 01:51:05;;;;;;;10.63;6.75;;;;;;;18.35;100.00;98090.22;2626473;28;20048;-88
2022/06/30 01:52:21;;;;;;;11.55;7.18;;;;;;;18.37;100.00;98093.59;2626597;28;20095;-86
2022/06/30 01:53:36;;;;;;;11.48;7.60;;;;;;;18.34;100.00;98086.69;2625980;28;20535;-87
2022/06/30 01:54:52;;;;;;;11.57;7.78;;;;;;;18.34;100.00;98083.22;2626347;28;20656;-88
2022/06/30 01:56:08;;;;;;;13.85;7.38;;;;;;;18.31;100.00;98086.91;2626579;28;20058;-88
2022/06/30 01:57:23;;;;;;;10.20;7.03;;;;;;;18.34;100.00;98088.50;2626446;28;20040;-87
2022/06/30 01:58:39;;;;;;;12.15;7.55;;;;;;;18.35;100.00;98090.22;2626543;28;20410;-86
2022/06/30 01:59:55;;;;;;;10.18;7.03;;;;;;;18.34;100.00;98088.50;2626628;28;20044;-88
2022/06/30 02:01:10;;;;;;;10.32;7.68;;;;;;;18.36;100.00;98089.25;2626704;28;20055;-86
2022/06/30 02:02:26;;;;;;;8.75;6.63;;;;;;;18.35;100.00;98084.91;2626357;28;20592;-90
2022/06/30 02:03:41;;;;;;;10.52;7.25;;;;;;;18.32;100.00;98085.94;2626564;28;20059;-87
2022/06/30 02:04:57;;;;;;;9.70;6.95;;;;;;;18.30;100.00;98087.84;2626170;28;20123;-88
2022/06/30 02:06:13;;;;;;;11.07;7.22;;;;;;;18.31;100.00;98094.03;2626414;28;20051;-88
2022/06/30 02:07:28;;;;;;;12.18;7.03;;;;;;;18.35;100.00;98087.56;2626130;28;20122;-87
2022/06/30 02:08:44;;;;;;;10.63;6.70;;;;;;;18.39;100.00;98077.63;2626176;28;20586;-86
2022/06/30 02:10:00;;;;;;;12.88;7.75;;;;;;;18.48;100.00;98079.63;2626637;28;20064;-86
2022/06/30 02:11:15;;;;;;;9.95;7.25;;;;;;;18.50;100.00;98077.72;2626452;28;20044;-87
2022/06/30 02:12:46;;;;;;;13.32;6.95;;;;;;;18.46;100.00;98085.06;2626310;28;20494;-85
2022/06/30 02:14:01;;;;;;;10.02;6.93;;;;;;;18.43;100.00;98085.22;2627334;28;20063;-86
2022/06/30 02:15:32;;;;;;;11.32;7.03;;;;;;;18.46;100.00;98095.66;2628439;28;20571;-86
2022/06/30 02:16:48;;;;;;;9.73;7.63;;;;;;;18.46;100.00;98089.50;2628469;28;20052;-86
2022/06/30 02:18:06;;;;;;;11.93;7.13;;;;;;;18.45;100.00;98093.97;2628438;28;20130;-87
2022/06/30 02:19:21;;;;;;;10.70;6.97;;;;;;;18.47;100.00;98093.84;2628457;28;20058;-86
2022/06/30 02:20:37;;;;;;;9.68;6.75;;;;;;;18.50;100.00;98098.94;2627838;28;20059;-88
2022/06/30 02:21:52;;;;;;;12.15;7.28;;;;;;;18.45;100.00;98101.91;2628104;28;20048;-86
2022/06/30 02:23:08;;;;;;;20.20;7.85;;;;;;;18.36;100.00;98102.50;2628725;28;20514;-87
2022/06/30 02:24:23;;;;;;;11.02;8.20;;;;;;;18.37;100.00;98104.19;2628261;28;20074;-87
2022/06/30 02:25:39;;;;;;;16.38;8.02;;;;;;;18.36;100.00;98110.47;2628384;28;20410;-86
2022/06/30 02:26:55;;;;;;;13.48;7.72;;;;;;;18.36;100.00;98105.16;2628211;28;20040;-86
2022/06/30 02:28:11;;;;;;;10.25;7.95;;;;;;;18.32;100.00;98108.97;2628131;28;20169;-89
2022/06/30 02:29:26;;;;;;;15.43;9.13;;;;;;;18.28;100.00;98113.59;2628483;28;20067;-86
2022/06/30 02:30:42;;;;;;;12.13;8.18;;;;;;;18.30;100.00;98108.19;2627902;28;20052;-86
2022/06/30 02:31:58;;;;;;;14.20;8.70;;;;;;;18.29;100.00;98102.06;2628055;28;20043;-87
2022/06/30 02:33:15;;;;;;;12.73;8.65;;;;;;;18.32;100.00;98109.81;2617041;28;20074;-87
2022/06/30 02:34:31;;;;;;;12.77;8.95;;;;;;;18.32;100.00;98103.66;2621588;28;20048;-87
2022/06/30 02:35:47;;;;;;;15.52;9.98;;;;;;;18.32;100.00;98111.63;2627718;28;20048;-88
2022/06/30 02:37:02;;;;;;;14.38;10.05;;;;;;;18.33;100.00;98105.38;2627572;28;20087;-88
2022/06/30 02:38:18;;;;;;;12.60;9.02;;;;;;;18.33;100.00;98103.53;2627960;28;20127;-87
2022/06/30 02:39:34;;;;;;;13.70;8.77;;;;;;;18.33;100.00;98094.75;2628272;28;20063;-86
2022/06/30 02:40:49;;;;;;;12.73;9.00;;;;;;;18.35;100.00;98103.47;2627727;28;20047;-86
2022/06/30 02:42:05;;;;;;;13.30;9.02;;;;;;;18.33;100.00;98092.13;2628327;28;20048;-86
2022/06/30 02:43:21;;;;;;;17.35;10.00;;;;;;;18.32;100.00;98095.72;2628029;28;20428;-88
2022/06/30 02:44:37;;;;;;;13.10;8.75;;;;;;;18.31;100.00;98096.66;2628014;28;20052;-86
2022/06/30 02:45:52;;;;;;;11.85;8.48;;;;;;;18.28;100.00;98094.19;2627920;28;20044;-89
2022/06/30 02:47:08;;;;;;;13.02;8.32;;;;;;;18.26;100.00;98091.66;2627871;28;20060;-88
2022/06/30 02:48:23;;;;;;;12.40;8.32;;;;;;;18.25;100.00;98089.97;2627892;28;20438;-87
2022/06/30 02:49:39;;;;;;;13.60;8.85;;;;;;;18.26;100.00;98090.78;2628377;28;20048;-86
2022/06/30 02:50:55;;;;;;;12.52;8.13;;;;;;;18.26;100.00;98094.31;2628123;28;20047;-87
2022/06/30 02:52:10;;;;;;;13.80;8.85;;;;;;;18.25;100.00;98097.91;2628349;28;20059;-86
2022/06/30 02:53:26;;;;;;;13.45;8.73;;;;;;;18.26;100.00;98093.44;2628066;28;20044;-86
2022/06/30 02:54:41;;;;;;;14.00;8.32;;;;;;;18.24;100.00;98092.69;2627867;28;20047;-88
2022/06/30 02:55:57;;;;;;;17.08;9.52;;;;;;;18.24;100.00;98092.69;2627497;28;20427;-88
2022/06/30 02:57:12;;;;;;;14.93;8.90;;;;;;;18.25;100.00;98094.41;2627889;28;20123;-88
2022/06/30 02:58:28;;;;;;;12.60;8.35;;;;;;;18.24;100.00;98098.00;2615967;28;20646;-88
2022/06/30 02:59:43;;;;;;;11.80;8.35;;;;;;;18.23;100.00;98093.66;2620912;28;20111;-89
2022/06/30 03:00:59;;;;;;;18.23;9.23;;;;;;;18.21;100.00;98096.41;2627560;28;20127;-87
2022/06/30 03:02:15;;;;;;;16.52;9.40;;;;;;;18.22;100.00;98098.09;2616666;28;20041;-86
2022/06/30 03:03:31;;;;;;;13.05;8.95;;;;;;;18.21;100.00;98099.03;2621027;28;20078;-87
2022/06/30 03:04:46;;;;;;;13.35;9.13;;;;;;;18.23;100.00;98102.47;2627668;28;20118;-85
2022/06/30 03:06:02;;;;;;;13.23;9.57;;;;;;;18.26;100.00;98096.97;2627695;28;20482;-86
2022/06/30 03:07:18;;;;;;;13.10;8.73;;;;;;;18.23;100.00;98102.47;2627269;28;20052;-87
2022/06/30 03:08:33;;;;;;;13.40;8.43;;;;;;;18.27;100.00;98105.75;2616455;28;20044;-88
2022/06/30 03:09:49;;;;;;;13.27;8.75;;;;;;;18.28;100.00;98102.16;2620887;28;20051;-87
2022/06/30 03:11:05;;;;;;;12.25;8.90;;;;;;;18.30;100.00;98105.53;2627201;28;20126;-87
2022/06/30 03:12:20;;;;;;;14.13;8.73;;;;;;;18.31;100.00;98101.97;2627839;28;20138;-86
2022/06/30 03:13:36;;;;;;;12.38;8.32;;;;;;;18.32;100.00;98101.00;2627403;28;20071;-87
2022/06/30 03:14:52;;;;;;;12.13;8.43;;;;;;;18.32;100.00;98104.50;2616206;28;20048;-87
2022/06/30 03:16:07;;;;;;;13.63;8.20;;;;;;;18.35;100.00;98106.94;2610348;28;20518;-89
2022/06/30 03:17:24;;;;;;;13.75;8.98;;;;;;;18.37;100.00;98104.19;2621065;28;20056;-89
2022/06/30 03:18:40;;;;;;;13.77;8.23;;;;;;;18.39;100.00;98102.28;2627507;28;20366;-88
2022/06/30 03:19:55;;;;;;;12.48;8.27;;;;;;;18.38;100.00;98103.25;2627663;28;20093;-87
2022/06/30 03:21:12;;;;;;;15.05;8.55;;;;;;;18.36;100.00;98099.84;2627934;28;20044;-87
2022/06/30 03:22:28;;;;;;;11.90;8.52;;;;;;;18.35;100.00;98100.81;2627703;28;20052;-87
2022/06/30 03:23:44;;;;;;;12.35;7.97;;;;;;;18.34;100.00;98099.13;2627405;28;20163;-88
2022/06/30 03:24:59;;;;;;;12.52;8.85;;;;;;;18.34;100.00;98099.13;2626529;28;20102;-88
2022/06/30 03:26:16;;;;;;;12.82;8.30;;;;;;;18.33;100.00;98098.25;2627590;28;20084;-87
2022/06/30 03:27:31;;;;;;;11.70;8.52;;;;;;;18.32;100.00;98095.72;2627488;28;20072;-88
2022/06/30 03:28:47;;;;;;;15.50;10.38;;;;;;;18.31;100.00;98101.97;2627505;28;20048;-87
2022/06/30 03:30:02;;;;;;;12.40;9.32;;;;;;;18.28;100.00;98096.84;2627627;28;20048;-91
2022/06/30 03:31:18;;;;;;;14.50;9.07;;;;;;;18.30;100.00;98100.25;2627805;28;20044;-88
2022/06/30 03:32:34;;;;;;;13.38;8.88;;;;;;;18.31;100.00;98104.63;2627583;28;20396;-87
2022/06/30 03:33:49;;;;;;;19.38;9.80;;;;;;;18.35;100.00;98103.47;2627619;28;20092;-88
2022/06/30 03:35:06;;;;;;;13.65;9.25;;;;;;;18.35;100.00;98098.16;2627877;28;20051;-88
2022/06/30 03:36:22;;;;;;;16.65;8.73;;;;;;;18.33;100.00;98100.06;2627578;28;20074;-91
2022/06/30 03:37:38;;;;;;;12.38;9.07;;;;;;;18.26;100.00;98096.09;2627729;28;20564;-88
2022/06/30 03:38:53;;;;;;;15.40;8.73;;;;;;;18.23;100.00;98097.16;2627703;28;20135;-87
2022/06/30 03:40:09;;;;;;;12.82;8.57;;;;;;;18.23;100.00;98093.66;2627765;28;20101;-87
2022/06/30 03:41:25;;;;;;;14.05;8.73;;;;;;;18.28;100.00;98092.41;2626362;28;20047;-84
2022/06/30 03:42:41;;;;;;;13.30;8.55;;;;;;;18.29;100.00;98093.25;2626967;28;20078;-85
2022/06/30 03:43:56;;;;;;;12.35;8.10;;;;;;;18.30;100.00;98100.25;2627483;28;20054;-85
2022/06/30 03:45:12;;;;;;;14.20;8.98;;;;;;;18.30;100.00;98103.75;2627642;28;20051;-86
2022/06/30 03:46:28;;;;;;;13.35;9.00;;;;;;;18.32;100.00;98096.53;2627464;28;20477;-87
2022/06/30 03:47:43;;;;;;;14.55;9.57;;;;;;;18.39;100.00;98097.00;2627446;28;20157;-86
2022/06/30 03:48:59;;;;;;;21.27;12.32;;;;;;;18.38;100.00;98095.28;2627463;28;20048;-86
2022/06/30 03:50:14;;;;;;;19.17;11.00;;;;;;;18.38;100.00;98097.94;2627277;28;20104;-88
2022/06/30 03:51:30;;;;;;;27.63;15.50;;;;;;;18.41;100.00;98099.56;2627722;28;20052;-87
2022/06/30 03:52:46;;;;;;;29.75;15.82;;;;;;;18.42;100.00;98099.44;2627517;28;20044;-86
2022/06/30 03:54:02;;;;;;;31.25;15.70;;;;;;;18.41;100.00;98092.44;2627752;28;20513;-85
2022/06/30 03:55:18;;;;;;;28.58;15.32;;;;;;;18.42;100.00;98093.31;2627269;28;20440;-85
2022/06/30 03:56:34;;;;;;;28.13;14.98;;;;;;;18.43;100.00;98098.47;2627504;28;20043;-88
2022/06/30 03:57:49;;;;;;;32.75;15.13;;;;;;;18.43;100.00;98098.47;2627231;28;20048;-85
2022/06/30 03:59:05;;;;;;;27.35;14.45;;;;;;;18.40;100.00;98101.34;2616052;28;20158;-86
2022/06/30 04:00:21;;;;;;;28.13;15.02;;;;;;;18.42;100.00;98091.47;2620426;28;20056;-85
2022/06/30 04:01:37;;;;;;;26.27;14.20;;;;;;;18.42;100.00;98095.97;2626105;28;20135;-85
2022/06/30 04:02:52;;;;;;;28.50;14.27;;;;;;;18.43;100.00;98103.78;2627341;28;20130;-85
2022/06/30 04:04:08;;;;;;;27.08;14.10;;;;;;;18.45;100.00;98101.91;2627405;28;20047;-87
2022/06/30 04:05:23;;;;;;;24.92;13.43;;;;;;;18.48;100.00;98104.34;2627500;28;20051;-87
2022/06/30 04:06:39;;;;;;;26.20;13.65;;;;;;;18.48;100.00;98109.66;2627049;28;20052;-88
2022/06/30 04:07:55;;;;;;;26.38;13.88;;;;;;;18.49;100.00;98107.84;2626294;28;20100;-87
2022/06/30 04:09:11;;;;;;;23.25;13.50;;;;;;;18.52;100.00;98109.44;2626482;28;20052;-87
2022/06/30 04:10:26;;;;;;;25.33;13.25;;;;;;;18.53;100.00;98108.50;2627423;28;20059;-87
2022/06/30 04:11:42;;;;;;;19.88;12.95;;;;;;;18.56;100.00;98113.59;2627400;28;20490;-87
2022/06/30 04:12:57;;;;;;;24.55;11.98;;;;;;;18.55;100.00;98111.88;2627219;28;20167;-87
2022/06/30 04:14:13;;;;;;;26.42;12.60;;;;;;;18.59;100.00;98113.41;2627262;28;20130;-87
2022/06/30 04:15:29;;;;;;;18.83;11.35;;;;;;;18.66;100.00;98114.69;2626865;28;20097;-88
2022/06/30 04:16:44;;;;;;;18.95;11.32;;;;;;;18.68;100.00;98115.41;2627113;28;20348;-87
2022/06/30 04:18:00;;;;;;;24.92;11.35;;;;;;;18.67;100.00;98113.72;2627223;28;20048;-88
2022/06/30 04:19:16;;;;;;;14.25;9.18;;;;;;;18.65;100.00;98110.31;2626943;28;20047;-88
2022/06/30 04:20:31;;;;;;;16.35;9.93;;;;;;;18.67;100.00;98120.84;2627325;28;20055;-87
2022/06/30 04:21:47;;;;;;;14.25;9.07;;;;;;;18.66;100.00;98121.81;2627456;28;20059;-88
2022/06/30 04:23:03;;;;;;;16.08;9.43;;;;;;;18.63;100.00;98123.69;2626840;28;20044;-86
2022/06/30 04:24:18;;;;;;;13.90;9.48;;;;;;;18.61;100.00;98120.28;2627317;28;20131;-86
2022/06/30 04:25:34;;;;;;;17.33;10.00;;;;;;;18.62;100.00;98123.78;2627203;28;20055;-85
2022/06/30 04:26:49;;;;;;;13.95;9.32;;;;;;;18.66;100.00;98117.34;2615782;28;20055;-86
2022/06/30 04:28:05;;;;;;;12.13;9.13;;;;;;;18.66;100.00;98117.34;2612671;28;20052;-87
2022/06/30 04:29:21;;;;;;;16.42;9.45;;;;;;;18.67;100.00;98113.72;2619982;28;20533;-86
2022/06/30 04:33:45;;;;;;;18.83;9.10;;;;;;;18.66;100.00;98114.69;2626018;28;20044;-86
2022/06/30 04:35:01;;;;;;;12.48;9.23;;;;;;;18.67;100.00;98118.19;2625888;28;20476;-86
2022/06/30 04:36:17;;;;;;;14.25;9.23;;;;;;;18.67;100.00;98111.06;2623075;28;21042;-85
2022/06/30 04:37:32;;;;;;;12.60;8.93;;;;;;;18.67;100.00;98115.53;2623170;28;20130;-85
2022/06/30 04:38:48;;;;;;;16.42;8.95;;;;;;;18.69;100.00;98119.78;2623865;28;20379;-85
2022/06/30 04:41:39;;;;;;;12.98;7.75;;;;;;;18.75;100.00;98119.38;2623289;28;20083;-85
2022/06/30 04:42:55;;;;;;;11.52;7.55;;;;;;;18.80;100.00;98123.50;2623602;28;20138;-85
2022/06/30 04:44:10;;;;;;;12.95;7.82;;;;;;;18.83;100.00;98120.66;2623917;28;20516;-84
2022/06/30 04:45:26;;;;;;;12.98;7.65;;;;;;;18.88;100.00;98127.34;2623513;28;20073;-85
2022/06/30 04:46:41;;;;;;;10.38;7.13;;;;;;;18.92;100.00;98123.53;2623185;28;20048;-84
2022/06/30 04:47:57;;;;;;;11.63;7.70;;;;;;;18.94;100.00;98126.09;2622999;28;20173;-84
2022/06/30 04:49:12;;;;;;;9.93;7.47;;;;;;;18.94;100.00;98127.91;2623204;28;20516;-85
2022/06/30 04:50:28;;;;;;;12.65;8.00;;;;;;;18.97;100.00;98127.69;2623085;28;20123;-85
2022/06/30 04:51:44;;;;;;;10.38;7.18;;;;;;;18.96;100.00;98126.00;2622962;28;20067;-85
2022/06/30 04:53:00;;;;;;;13.13;8.25;;;;;;;18.97;100.00;98125.03;2622410;28;20044;-84
2022/06/30 04:54:15;;;;;;;11.65;8.00;;;;;;;18.98;100.00;98127.56;2623207;28;20100;-84
2022/06/30 04:55:31;;;;;;;10.65;7.55;;;;;;;18.97;100.00;98125.03;2622893;28;20528;-85
2022/06/30 04:56:46;;;;;;;12.25;8.52;;;;;;;18.97;100.00;98128.53;2622685;28;20133;-85
2022/06/30 04:58:03;;;;;;;9.20;7.22;;;;;;;19.01;100.00;98134.50;2622529;28;20483;-85
2022/06/30 04:59:18;;;;;;;13.60;8.27;;;;;;;19.04;100.00;98136.94;2622546;28;20444;-89
2022/06/30 05:00:34;;;;;;;10.52;7.90;;;;;;;19.04;100.00;98132.50;2622876;28;20044;-86
2022/06/30 05:01:49;;;;;;;10.35;7.82;;;;;;;19.08;100.00;98142.91;2622734;28;20080;-85
2022/06/30 05:03:05;;;;;;;15.50;8.13;;;;;;;19.10;100.00;98141.00;2622549;28;20059;-85
2022/06/30 05:04:20;;;;;;;9.60;7.72;;;;;;;19.10;100.00;98138.34;2622859;28;20040;-85
2022/06/30 05:05:39;;;;;;;17.55;9.70;;;;;;;19.10;100.00;98135.69;2622816;28;20071;-86
2022/06/30 05:06:54;;;;;;;20.83;12.25;;;;;;;19.10;100.00;98135.69;2622620;28;20048;-85
2022/06/30 05:08:10;;;;;;;20.50;10.98;;;;;;;19.10;100.00;98139.19;2622733;28;20082;-86
2022/06/30 05:09:26;;;;;;;21.80;13.68;;;;;;;19.09;100.00;98137.50;2622966;28;20048;-85
2022/06/30 05:10:41;;;;;;;24.27;13.35;;;;;;;19.10;100.00;98133.03;2622714;28;20044;-85
2022/06/30 05:11:57;;;;;;;23.75;13.05;;;;;;;19.12;100.00;98131.13;2622625;28;20160;-85
2022/06/30 05:13:12;;;;;;;22.90;13.65;;;;;;;19.13;100.00;98133.69;2623310;28;20055;-85
2022/06/30 05:14:28;;;;;;;20.30;13.45;;;;;;;19.18;100.00;98131.56;2623081;28;20913;-85
2022/06/30 05:15:47;;;;;;;21.58;13.32;;;;;;;19.22;100.00;98128.72;2622968;28;20127;-85
2022/06/30 05:17:04;;;;;;;22.50;13.65;;;;;;;19.25;100.00;98133.81;2622421;28;20101;-85
2022/06/30 05:18:20;;;;;;;20.75;13.10;;;;;;;19.29;100.00;98133.50;2624290;28;20639;-84
2022/06/30 05:19:36;;;;;;;19.27;12.65;;;;;;;19.37;100.00;98134.75;2624757;28;20395;-84
2022/06/30 05:20:52;;;;;;;20.08;12.90;;;;;;;19.34;100.00;98134.00;2622684;28;20099;-86
2022/06/30 05:22:08;;;;;;;17.08;10.75;;;;;;;19.38;100.00;98136.44;2623326;28;20085;-86
2022/06/30 05:23:23;;;;;;;18.23;11.30;;;;;;;19.40;100.00;98137.19;2622631;28;20406;-86
2022/06/30 05:26:28;;;;;;;14.82;10.10;;;;;;;19.47;100.00;98141.13;2622356;28;20047;-83
2022/06/30 05:27:47;;;;;;;14.60;9.45;;;;;;;19.47;100.00;98141.97;2622135;28;20051;-84
2022/06/30 05:29:03;;;;;;;15.25;10.57;;;;;;;19.46;100.00;98139.44;2622758;28;20474;-83
2022/06/30 05:30:19;;;;;;;17.15;11.07;;;;;;;19.53;100.00;98137.19;2622647;28;20048;-83
2022/06/30 05:31:34;;;;;;;15.18;10.60;;;;;;;19.55;100.00;98137.94;2611351;28;20477;-83
2022/06/30 05:32:50;;;;;;;18.35;10.57;;;;;;;19.54;100.00;98139.72;2615950;28;20044;-86
2022/06/30 05:34:06;;;;;;;18.65;11.00;;;;;;;19.47;100.00;98136.66;2622541;28;20130;-85
2022/06/30 05:35:21;;;;;;;16.17;9.85;;;;;;;19.46;100.00;98129.63;2622580;28;20102;-86
2022/06/30 05:36:37;;;;;;;16.77;10.07;;;;;;;19.40;100.00;98135.38;2622153;28;20392;-85
2022/06/30 05:37:53;;;;;;;13.20;9.70;;;;;;;19.37;100.00;98140.91;2611660;28;20123;-86
2022/06/30 05:39:08;;;;;;;14.00;9.60;;;;;;;19.42;100.00;98135.28;2615645;28;20071;-86
2022/06/30 05:40:24;;;;;;;11.45;7.60;;;;;;;19.41;100.00;98137.09;2622704;28;20455;-85
2022/06/30 05:41:40;;;;;;;14.32;7.93;;;;;;;19.41;100.00;98134.44;2622685;28;20444;-85
2022/06/30 05:42:55;;;;;;;10.43;7.00;;;;;;;19.39;100.00;98122.22;2623065;28;20279;-85
2022/06/30 05:44:11;;;;;;;8.80;6.88;;;;;;;19.36;100.00;98135.69;2622866;28;20052;-83
2022/06/30 05:45:27;;;;;;;10.25;6.88;;;;;;;19.31;100.00;98130.72;2623264;28;20097;-81
2022/06/30 05:46:43;;;;;;;9.82;7.07;;;;;;;19.27;100.00;98132.72;2623081;28;20048;-81
2022/06/30 05:47:59;;;;;;;11.20;8.07;;;;;;;19.29;100.00;98130.84;2623200;28;20044;-81
2022/06/30 05:49:15;;;;;;;9.80;7.50;;;;;;;19.32;100.00;98132.41;2625086;28;20522;-80
2022/06/30 05:50:30;;;;;;;12.85;7.90;;;;;;;19.33;100.00;98139.41;2625224;28;20044;-86
2022/06/30 05:51:46;;;;;;;13.48;8.43;;;;;;;19.37;100.00;98134.75;2625239;28;20479;-86
2022/06/30 05:53:01;;;;;;;11.00;8.43;;;;;;;19.38;100.00;98129.34;2625217;28;20136;-86
2022/06/30 05:54:17;;;;;;;16.65;10.25;;;;;;;19.40;100.00;98140.69;2625227;28;20086;-86
2022/06/30 05:55:33;;;;;;;13.85;9.45;;;;;;;19.42;100.00;98127.34;2625235;28;20048;-87
2022/06/30 05:56:48;;;;;;;13.82;9.75;;;;;;;19.43;100.00;98132.50;2625199;28;20415;-86
2022/06/30 05:58:04;;;;;;;15.90;10.55;;;;;;;19.48;100.00;98140.16;2624718;28;20048;-89